Time;durP1;ratioP1;P1;durP2;ratioP2;P2;SDS_P1;SDS_P2;PMS_P1;PMS_P2;Temp;Humidity;BMP_temperature;BMP_pressure;BME280_temperature;BME280_humidity;BME280_pressure;Samples;Min_cycle;Max_cycle;Signal;HPM_P1;HPM_P2
2024/01/24 00:00:18;;;;;;;3.63;0.85;;;;;;;12.49;100.00;101143.69;4968425;28;20027;-92
2024/01/24 00:02:46;;;;;;;1.95;0.77;;;;;;;12.39;100.00;101139.97;4962998;28;20125;-91
2024/01/24 00:05:12;;;;;;;2.85;0.65;;;;;;;12.59;100.00;101116.34;4977117;28;20030;-90
2024/01/24 00:07:37;;;;;;;1.23;0.57;;;;;;;12.52;100.00;101137.09;4950201;28;20030;-91
2024/01/24 00:10:03;;;;;;;3.63;0.73;;;;;;;12.64;100.00;101127.81;4968118;28;20040;-91
2024/01/24 00:12:28;;;;;;;2.72;0.68;;;;;;;12.52;100.00;101109.63;4958078;28;20061;-89
2024/01/24 00:14:54;;;;;;;3.50;0.70;;;;;;;12.53;100.00;101095.75;4946557;28;20437;-91
2024/01/24 00:17:21;;;;;;;1.63;0.57;;;;;;;12.58;100.00;101089.91;4941918;28;20031;-91
2024/01/24 00:19:49;;;;;;;2.47;0.60;;;;;;;12.65;100.00;101088.38;4978469;28;20464;-91
2024/01/24 00:22:18;;;;;;;2.53;0.70;;;;;;;12.56;100.00;101111.09;4959872;28;20134;-91
2024/01/24 00:24:43;;;;;;;0.40;0.40;;;;;;;12.66;100.00;101095.63;4972123;28;20097;-91
2024/01/24 00:27:08;;;;;;;3.15;1.02;;;;;;;12.67;100.00;101108.31;4941414;28;20480;-91
2024/01/24 00:29:34;;;;;;;1.17;0.50;;;;;;;12.77;100.00;101112.03;4960462;28;20034;-91
2024/01/24 00:31:59;;;;;;;1.67;0.50;;;;;;;12.76;100.00;101099.31;4961094;28;20031;-93
2024/01/24 00:34:26;;;;;;;2.47;0.50;;;;;;;12.64;100.00;101111.31;4962753;28;20033;-91
2024/01/24 00:36:52;;;;;;;1.77;0.50;;;;;;;12.78;100.00;101108.31;4946866;28;20124;-91
2024/01/24 00:39:17;;;;;;;1.75;0.50;;;;;;;12.69;100.00;101104.47;4946668;28;20038;-91
2024/01/24 00:41:43;;;;;;;1.80;0.50;;;;;;;12.67;100.00;101109.22;4974685;28;20031;-91
2024/01/24 00:44:09;;;;;;;1.23;0.40;;;;;;;12.66;100.00;101090.13;4970829;28;20034;-91
2024/01/24 00:46:34;;;;;;;0.45;0.40;;;;;;;12.72;100.00;101074.97;4962343;28;20034;-92
2024/01/24 00:49:10;;;;;;;1.75;0.75;;;;;;;12.81;100.00;101074.22;4978171;28;20404;-91
2024/01/24 00:51:38;;;;;;;1.13;0.50;;;;;;;12.69;100.00;101066.00;4957480;28;20043;-91
2024/01/24 00:54:05;;;;;;;1.23;0.50;;;;;;;12.86;100.00;101105.78;4973349;28;20138;-92
2024/01/24 00:56:30;;;;;;;2.83;0.63;;;;;;;12.82;100.00;101109.81;4972906;28;20037;-90
2024/01/24 00:58:56;;;;;;;1.45;0.50;;;;;;;12.75;100.00;101114.06;4958998;28;20134;-91
2024/01/24 01:01:21;;;;;;;1.65;0.50;;;;;;;12.84;100.00;101087.69;4942048;28;20125;-90
2024/01/24 01:03:47;;;;;;;2.17;0.70;;;;;;;12.80;100.00;101097.19;4959968;28;20117;-90
2024/01/24 01:06:12;;;;;;;0.52;0.40;;;;;;;12.84;100.00;101093.19;4942144;28;20476;-90
2024/01/24 01:08:38;;;;;;;2.50;0.40;;;;;;;12.73;100.00;101085.84;4961912;28;20089;-90
2024/01/24 01:11:05;;;;;;;1.33;0.45;;;;;;;12.82;100.00;101103.41;4945909;28;20340;-90
2024/01/24 01:13:32;;;;;;;1.80;0.57;;;;;;;12.79;100.00;101114.66;4978414;28;20069;-90
2024/01/24 01:15:58;;;;;;;1.25;0.43;;;;;;;12.70;100.00;101088.84;4945477;28;20499;-91
2024/01/24 01:18:23;;;;;;;1.13;0.50;;;;;;;12.80;100.00;101089.81;4953816;28;20034;-90
2024/01/24 01:20:49;;;;;;;0.85;0.38;;;;;;;12.94;100.00;101079.53;4944330;28;20034;-90
2024/01/24 01:23:14;;;;;;;1.95;0.43;;;;;;;12.92;100.00;101082.41;4958284;28;20137;-90
2024/01/24 01:25:40;;;;;;;1.30;0.40;;;;;;;12.94;100.00;101077.66;4943278;28;20088;-90
2024/01/24 01:28:06;;;;;;;0.30;0.30;;;;;;;12.95;100.00;101079.38;4942675;28;20382;-90
2024/01/24 01:30:32;;;;;;;0.50;0.30;;;;;;;12.89;100.00;101066.19;4962108;28;20065;-90
2024/01/24 01:32:57;;;;;;;1.67;0.50;;;;;;;12.83;100.00;101078.56;4969572;28;20074;-91
2024/01/24 01:35:22;;;;;;;1.02;0.40;;;;;;;12.92;100.00;101054.03;4950086;28;20157;-92
2024/01/24 01:37:51;;;;;;;0.20;0.20;;;;;;;12.95;100.00;101060.13;4946974;28;20037;-91
2024/01/24 01:40:16;;;;;;;0.20;0.20;;;;;;;12.96;100.00;101052.78;4964484;28;20037;-91
2024/01/24 01:42:44;;;;;;;0.28;0.28;;;;;;;13.03;100.00;101052.09;4952395;28;20023;-90
2024/01/24 01:45:14;;;;;;;0.65;0.38;;;;;;;12.97;100.00;101074.63;4977698;28;20058;-91
2024/01/24 01:47:39;;;;;;;0.22;0.22;;;;;;;12.99;100.00;101074.50;4994641;28;20022;-92
2024/01/24 01:50:16;;;;;;;1.40;0.40;;;;;;;12.95;100.00;101065.63;4971508;28;20030;-91
2024/01/24 01:52:42;;;;;;;0.20;0.20;;;;;;;12.98;100.00;101076.38;4979610;28;20034;-91
2024/01/24 01:55:11;;;;;;;1.13;0.35;;;;;;;12.94;100.00;101074.91;4977627;28;20102;-92
2024/01/24 01:57:38;;;;;;;0.20;0.20;;;;;;;12.98;100.00;101084.59;4983607;28;20186;-92
2024/01/24 02:00:05;;;;;;;0.30;0.30;;;;;;;12.83;100.00;101075.81;4953340;28;20149;-92
2024/01/24 02:02:35;;;;;;;1.05;0.30;;;;;;;12.91;100.00;101080.66;4970404;28;20035;-91
2024/01/24 02:05:04;;;;;;;0.30;0.30;;;;;;;12.85;100.00;101084.81;4962809;28;20551;-91
2024/01/24 02:07:31;;;;;;;0.50;0.30;;;;;;;12.70;100.00;101083.34;4962418;28;20039;-91
2024/01/24 02:10:00;;;;;;;1.40;0.30;;;;;;;12.56;100.00;101064.41;4985526;28;20019;-90
2024/01/24 02:12:25;;;;;;;0.30;0.30;;;;;;;12.41;100.00;101078.44;4981867;28;20042;-90
2024/01/24 02:14:52;;;;;;;1.00;0.40;;;;;;;12.32;100.00;101057.25;4949421;28;20049;-90
2024/01/24 02:17:19;;;;;;;1.17;0.30;;;;;;;12.20;100.00;101059.13;4969709;28;20125;-90
2024/01/24 02:19:44;;;;;;;0.28;0.28;;;;;;;12.06;100.00;101049.28;4960868;28;20077;-91
2024/01/24 02:22:11;;;;;;;0.43;0.30;;;;;;;12.04;100.00;101044.94;4976072;28;20078;-90
2024/01/24 02:24:37;;;;;;;1.88;0.35;;;;;;;12.06;100.00;101053.91;4953521;28;20034;-89
2024/01/24 02:27:03;;;;;;;0.93;0.40;;;;;;;12.04;100.00;101055.91;4986471;28;20031;-90
2024/01/24 02:29:29;;;;;;;0.30;0.30;;;;;;;12.04;100.00;101053.16;4957156;28;20058;-91
2024/01/24 02:31:58;;;;;;;0.70;0.43;;;;;;;11.95;100.00;101044.69;4952431;28;20487;-91
2024/01/24 02:34:23;;;;;;;0.85;0.43;;;;;;;11.98;100.00;101051.78;4960997;28;20054;-90
2024/01/24 02:36:49;;;;;;;0.30;0.30;;;;;;;11.92;100.00;101057.75;4928165;28;20101;-91
2024/01/24 02:39:14;;;;;;;0.30;0.30;;;;;;;11.89;100.00;101044.28;4945598;28;20032;-91
2024/01/24 02:41:40;;;;;;;1.50;0.50;;;;;;;11.86;100.00;101053.63;4943228;28;20496;-91
2024/01/24 02:44:06;;;;;;;0.20;0.20;;;;;;;11.92;100.00;101064.16;4959953;28;20116;-90
2024/01/24 02:46:31;;;;;;;0.30;0.30;;;;;;;11.84;100.00;101058.38;4943067;28;20034;-88
2024/01/24 02:48:56;;;;;;;0.35;0.32;;;;;;;11.81;100.00;101060.50;4951475;28;20039;-87
2024/01/24 02:51:25;;;;;;;0.40;0.40;;;;;;;11.71;100.00;101052.16;4959822;28;20046;-87
2024/01/24 02:53:52;;;;;;;0.22;0.22;;;;;;;11.80;100.00;101059.63;4968386;28;20031;-88
2024/01/24 02:56:18;;;;;;;0.30;0.30;;;;;;;11.69;100.00;101062.34;4941240;28;20523;-88
2024/01/24 02:58:43;;;;;;;0.38;0.38;;;;;;;11.66;100.00;101063.50;4962493;28;20051;-88
2024/01/24 03:01:08;;;;;;;0.40;0.40;;;;;;;11.67;100.00;101072.56;4946406;28;20034;-89
2024/01/24 03:03:34;;;;;;;0.30;0.30;;;;;;;11.65;100.00;101069.94;4947041;28;20034;-88
2024/01/24 03:06:03;;;;;;;0.55;0.22;;;;;;;11.63;100.00;101041.78;4944726;28;20038;-89
2024/01/24 03:08:32;;;;;;;0.52;0.30;;;;;;;11.64;100.00;101049.03;4976329;28;20034;-87
2024/01/24 03:10:59;;;;;;;0.30;0.30;;;;;;;11.63;100.00;101035.44;4985564;28;20030;-88
2024/01/24 03:13:25;;;;;;;0.35;0.22;;;;;;;11.64;100.00;101065.47;4977309;28;20496;-87
2024/01/24 03:15:51;;;;;;;0.22;0.22;;;;;;;11.73;100.00;101061.97;4965753;28;20031;-88
2024/01/24 03:18:18;;;;;;;0.20;0.20;;;;;;;11.72;100.00;101076.72;4946792;28;20404;-88
2024/01/24 03:20:45;;;;;;;0.32;0.20;;;;;;;11.84;100.00;101082.19;4958399;28;20076;-87
2024/01/24 03:23:12;;;;;;;0.30;0.20;;;;;;;11.82;100.00;101076.81;4958970;28;20026;-86
2024/01/24 03:25:38;;;;;;;0.20;0.20;;;;;;;11.78;100.00;101067.97;4963167;28;20034;-87
2024/01/24 03:28:03;;;;;;;0.32;0.20;;;;;;;11.78;100.00;101084.41;4956862;28;20037;-88
2024/01/24 03:30:29;;;;;;;0.22;0.22;;;;;;;11.78;100.00;101095.41;4944609;28;20140;-87
2024/01/24 03:32:55;;;;;;;0.20;0.20;;;;;;;11.83;100.00;101094.16;4954515;28;20034;-87
2024/01/24 03:35:20;;;;;;;0.85;0.30;;;;;;;11.90;100.00;101092.66;4977590;28;20093;-88
2024/01/24 03:37:46;;;;;;;0.65;0.55;;;;;;;11.79;100.00;101090.81;4945997;28;20415;-88
2024/01/24 03:40:12;;;;;;;0.20;0.20;;;;;;;11.87;100.00;101104.78;4958897;28;20038;-87
2024/01/24 03:42:38;;;;;;;0.40;0.28;;;;;;;11.90;100.00;101126.47;4973899;28;20500;-87
2024/01/24 03:45:04;;;;;;;0.30;0.30;;;;;;;11.85;100.00;101131.44;4941184;28;20073;-87
2024/01/24 03:47:31;;;;;;;0.20;0.20;;;;;;;11.90;100.00;101139.31;4958635;28;20054;-88
2024/01/24 03:49:57;;;;;;;0.55;0.22;;;;;;;11.84;100.00;101159.88;4959944;28;20038;-88
2024/01/24 03:52:22;;;;;;;0.70;0.20;;;;;;;11.90;100.00;101147.53;4953169;28;20037;-88
2024/01/24 03:54:48;;;;;;;0.45;0.30;;;;;;;11.98;100.00;101144.22;4948456;28;20439;-88
2024/01/24 03:57:13;;;;;;;2.17;0.30;;;;;;;11.97;100.00;101126.91;4958692;28;20112;-91
2024/01/24 03:59:39;;;;;;;0.80;0.40;;;;;;;11.97;100.00;101143.34;4977441;28;20026;-90
2024/01/24 04:02:04;;;;;;;2.25;0.30;;;;;;;12.08;100.00;101134.25;4958776;28;20480;-91
2024/01/24 04:04:30;;;;;;;0.47;0.20;;;;;;;11.99;100.00;101141.34;4979958;28;20037;-91
2024/01/24 04:06:55;;;;;;;1.65;0.30;;;;;;;11.94;100.00;101149.94;4966714;28;20046;-91
2024/01/24 04:09:21;;;;;;;2.75;0.30;;;;;;;11.94;100.00;101143.59;4958595;28;20030;-91
2024/01/24 04:11:47;;;;;;;1.85;0.50;;;;;;;11.98;100.00;101145.09;4977992;28;20042;-91
2024/01/24 04:14:13;;;;;;;2.40;0.60;;;;;;;11.97;100.00;101148.84;4958357;28;20030;-91
2024/01/24 04:16:39;;;;;;;1.63;0.43;;;;;;;12.00;100.00;101109.28;4946507;28;20034;-90
2024/01/24 04:19:05;;;;;;;2.08;0.57;;;;;;;12.04;100.00;101133.63;4965688;28;20034;-92
2024/01/24 04:21:32;;;;;;;3.30;0.65;;;;;;;12.16;100.00;101134.50;4963954;28;20030;-89
2024/01/24 04:23:58;;;;;;;4.00;0.80;;;;;;;12.11;100.00;101142.22;4978707;28;20077;-90
2024/01/24 04:26:23;;;;;;;3.30;1.02;;;;;;;12.10;100.00;101127.63;4962322;28;20062;-90
2024/01/24 04:28:52;;;;;;;2.10;0.73;;;;;;;12.00;100.00;101144.97;4980197;28;20112;-90
2024/01/24 04:31:17;;;;;;;2.35;0.57;;;;;;;12.18;100.00;101139.84;4948441;28;20034;-90
2024/01/24 04:33:42;;;;;;;2.47;0.70;;;;;;;12.10;100.00;101141.38;4962750;28;20106;-90
2024/01/24 04:36:09;;;;;;;3.17;0.70;;;;;;;12.15;100.00;101154.72;4961863;28;20122;-89
2024/01/24 04:38:38;;;;;;;2.47;0.68;;;;;;;12.11;100.00;101172.41;4945701;28;20037;-90
2024/01/24 04:41:03;;;;;;;4.53;0.63;;;;;;;12.08;100.00;101169.91;4958241;28;20038;-91
2024/01/24 04:43:30;;;;;;;2.85;0.77;;;;;;;12.05;100.00;101182.03;4957060;28;20034;-91
2024/01/24 04:45:56;;;;;;;4.32;0.60;;;;;;;12.00;100.00;101189.75;4944808;28;20092;-91
2024/01/24 04:48:21;;;;;;;3.47;0.70;;;;;;;12.03;100.00;101185.88;4945016;28;20492;-91
2024/01/24 04:50:47;;;;;;;4.43;0.80;;;;;;;12.02;100.00;101185.03;4942002;28;20034;-92
2024/01/24 04:53:12;;;;;;;3.45;0.60;;;;;;;11.99;100.00;101189.88;4967359;28;20065;-90
2024/01/24 04:55:38;;;;;;;6.53;0.70;;;;;;;11.84;100.00;101200.16;4976395;28;20081;-91
2024/01/24 04:58:04;;;;;;;3.80;0.73;;;;;;;11.88;100.00;101183.34;4956889;28;20038;-92
2024/01/24 05:00:30;;;;;;;3.92;1.02;;;;;;;11.89;100.00;101195.19;4963952;28;20034;-91
2024/01/24 05:02:55;;;;;;;5.20;0.90;;;;;;;11.89;100.00;101197.94;4941690;28;20107;-91
2024/01/24 05:05:21;;;;;;;6.85;1.40;;;;;;;11.82;100.00;101178.31;4944465;28;20034;-91
2024/01/24 05:07:46;;;;;;;6.93;1.08;;;;;;;11.78;100.00;101174.09;4949104;28;20034;-85
2024/01/24 05:10:12;;;;;;;11.13;1.40;;;;;;;11.74;100.00;101158.84;4957128;28;20045;-87
2024/01/24 05:12:37;;;;;;;9.35;1.67;;;;;;;11.75;100.00;101179.81;4940112;28;20031;-86
2024/01/24 05:15:04;;;;;;;8.43;1.38;;;;;;;11.69;100.00;101183.03;4941802;28;20026;-86
2024/01/24 05:17:30;;;;;;;6.90;1.42;;;;;;;11.58;100.00;101182.00;4940936;28;20169;-86
2024/01/24 05:19:56;;;;;;;8.35;1.85;;;;;;;11.70;100.00;101182.06;4942712;28;20034;-86
2024/01/24 05:22:22;;;;;;;6.68;1.45;;;;;;;11.68;100.00;101214.22;4954594;28;20053;-88
2024/01/24 05:24:47;;;;;;;9.45;2.25;;;;;;;11.88;100.00;101199.78;4968529;28;20037;-86
2024/01/24 05:27:13;;;;;;;14.02;2.65;;;;;;;11.83;100.00;101217.63;4956215;28;20073;-87
2024/01/24 05:29:39;;;;;;;9.35;1.55;;;;;;;11.75;100.00;101213.59;4969707;28;20476;-88
2024/01/24 05:32:05;;;;;;;10.48;2.40;;;;;;;11.70;100.00;101240.53;4942646;28;20056;-87
2024/01/24 05:34:30;;;;;;;6.82;1.40;;;;;;;11.73;100.00;101228.44;4956171;28;20034;-86
2024/01/24 05:36:57;;;;;;;9.05;1.77;;;;;;;11.79;100.00;101238.94;4973493;28;20049;-84
2024/01/24 05:39:22;;;;;;;10.48;2.35;;;;;;;11.85;100.00;101232.09;4989144;28;20037;-85
2024/01/24 05:41:47;;;;;;;10.43;2.10;;;;;;;11.77;100.00;101240.91;4961595;28;20030;-86
2024/01/24 05:44:14;;;;;;;9.15;1.50;;;;;;;11.75;100.00;101232.81;4949982;28;20124;-85
2024/01/24 05:46:40;;;;;;;10.13;1.90;;;;;;;11.78;100.00;101259.13;4941095;28;20030;-86
2024/01/24 05:49:06;;;;;;;10.82;2.55;;;;;;;11.77;100.00;101255.53;4957197;28;20096;-86
2024/01/24 05:51:31;;;;;;;12.30;2.45;;;;;;;11.77;100.00;101255.53;4939973;28;20373;-88
2024/01/24 05:54:01;;;;;;;10.07;2.20;;;;;;;11.75;100.00;101242.91;4955534;28;20480;-87
2024/01/24 05:56:27;;;;;;;12.57;2.10;;;;;;;11.61;100.00;101243.09;4960226;28;20040;-87
2024/01/24 05:58:53;;;;;;;14.32;2.17;;;;;;;11.67;100.00;101246.25;4953898;28;20053;-86
2024/01/24 06:01:18;;;;;;;12.23;2.55;;;;;;;11.65;100.00;101272.91;4937028;28;20039;-86
2024/01/24 06:03:44;;;;;;;12.43;2.30;;;;;;;11.55;100.00;101270.00;4937938;28;20416;-86
2024/01/24 06:06:09;;;;;;;19.55;2.88;;;;;;;11.64;100.00;101264.81;4953303;28;20345;-86
2024/01/24 06:08:35;;;;;;;10.70;2.08;;;;;;;11.66;100.00;101246.34;4967906;28;20058;-85
2024/01/24 06:11:00;;;;;;;11.05;2.30;;;;;;;11.61;100.00;101251.34;4937045;28;20037;-87
2024/01/24 06:13:27;;;;;;;13.75;2.88;;;;;;;11.53;100.00;101261.03;4957158;28;20102;-87
2024/01/24 06:15:57;;;;;;;10.38;2.20;;;;;;;11.58;100.00;101269.78;4972840;28;20022;-95
2024/01/24 06:18:23;;;;;;;11.32;2.17;;;;;;;11.52;100.00;101281.22;4971455;28;20049;-96
2024/01/24 06:20:49;;;;;;;14.02;2.50;;;;;;;11.45;100.00;101304.63;4959057;28;20110;-96
2024/01/24 06:23:15;;;;;;;13.35;2.55;;;;;;;11.62;100.00;101291.50;4944498;28;20091;-96
2024/01/24 06:25:41;;;;;;;13.10;3.00;;;;;;;11.55;100.00;101313.03;4975824;28;20023;-96
2024/01/24 06:28:07;;;;;;;24.60;4.97;;;;;;;11.52;100.00;101316.00;4927348;28;20027;-96
2024/01/24 06:30:32;;;;;;;14.43;2.25;;;;;;;11.54;100.00;101336.84;4944433;28;20031;-96
2024/01/24 06:32:58;;;;;;;16.83;3.92;;;;;;;11.60;100.00;101360.16;4946376;28;20034;-94
2024/01/24 06:35:23;;;;;;;18.38;2.78;;;;;;;11.68;100.00;101341.25;4945090;28;20027;-93
2024/01/24 06:37:49;;;;;;;17.50;2.65;;;;;;;11.67;100.00;101379.78;4950060;28;21406;-93
2024/01/24 06:40:15;;;;;;;19.73;3.72;;;;;;;11.52;100.00;101379.94;4961820;28;20117;-93
2024/01/24 06:42:41;;;;;;;15.73;2.85;;;;;;;11.47;100.00;101364.84;4954644;28;20481;-96
2024/01/24 06:45:26;;;;;;;17.70;2.47;;;;;;;11.53;100.00;101403.63;4977936;28;20031;-93
2024/01/24 06:47:52;;;;;;;15.07;2.92;;;;;;;11.54;100.00;101388.94;4960868;28;20039;-94
2024/01/24 06:50:18;;;;;;;18.50;3.17;;;;;;;11.39;100.00;101390.06;4945312;28;20047;-94
2024/01/24 06:52:44;;;;;;;17.60;3.25;;;;;;;11.45;100.00;101400.59;4975510;28;20027;-94
2024/01/24 06:55:10;;;;;;;16.55;2.60;;;;;;;11.28;100.00;101399.09;4945712;28;20089;-95
2024/01/24 06:57:36;;;;;;;13.48;2.38;;;;;;;11.36;100.00;101404.91;4964995;28;20054;-96
2024/01/24 07:00:06;;;;;;;16.50;3.95;;;;;;;11.40;100.00;101446.66;4964610;28;20031;-95
2024/01/24 07:02:34;;;;;;;14.90;2.70;;;;;;;11.35;100.00;101455.22;4981944;28;20030;-94
2024/01/24 07:05:02;;;;;;;11.45;2.47;;;;;;;11.40;100.00;101439.31;4958933;28;20109;-94
2024/01/24 07:07:29;;;;;;;15.18;2.92;;;;;;;11.32;100.00;101460.94;4957297;28;20408;-94
2024/01/24 07:09:56;;;;;;;15.60;3.58;;;;;;;11.27;100.00;101454.03;4997894;28;20061;-94
2024/01/24 07:12:24;;;;;;;18.40;3.10;;;;;;;11.32;100.00;101427.16;4966028;28;20030;-94
2024/01/24 07:14:49;;;;;;;17.33;3.00;;;;;;;11.16;100.00;101438.34;4957693;28;20114;-92
2024/01/24 07:17:16;;;;;;;22.05;3.45;;;;;;;11.21;100.00;101445.28;4951155;28;20026;-93
2024/01/24 07:19:42;;;;;;;17.83;3.35;;;;;;;11.22;100.00;101468.94;4960888;28;20110;-93
2024/01/24 07:22:07;;;;;;;18.05;3.13;;;;;;;11.05;100.00;101452.81;4949435;28;20031;-93
2024/01/24 07:24:34;;;;;;;20.15;3.15;;;;;;;11.05;100.00;101469.25;4969952;28;20034;-93
2024/01/24 07:27:00;;;;;;;17.63;3.08;;;;;;;11.09;100.00;101479.03;4948395;28;20035;-93
2024/01/24 07:29:25;;;;;;;20.42;3.80;;;;;;;11.07;100.00;101491.09;4964957;28;20029;-93
2024/01/24 07:31:51;;;;;;;17.10;3.17;;;;;;;10.97;100.00;101493.59;4948399;28;20035;-93
2024/01/24 07:34:17;;;;;;;16.17;3.33;;;;;;;10.88;100.00;101480.56;4961725;28;20093;-95
2024/01/24 07:36:42;;;;;;;24.92;3.90;;;;;;;10.88;100.00;101495.13;4962132;28;20129;-94
2024/01/24 07:39:09;;;;;;;20.35;3.45;;;;;;;10.82;100.00;101492.81;4948156;28;20041;-93
2024/01/24 07:41:35;;;;;;;18.75;3.10;;;;;;;10.88;100.00;101495.13;4966916;28;20496;-93
2024/01/24 07:44:02;;;;;;;18.25;3.67;;;;;;;10.97;100.00;101510.94;4956147;28;20110;-93
2024/01/24 07:46:27;;;;;;;17.52;2.92;;;;;;;10.77;100.00;101504.13;4949080;28;20058;-93
2024/01/24 07:48:53;;;;;;;19.77;4.22;;;;;;;10.78;100.00;101494.91;4953751;28;20081;-93
2024/01/24 07:51:22;;;;;;;15.38;2.92;;;;;;;10.77;100.00;101474.00;4962172;28;20418;-93
2024/01/24 07:53:48;;;;;;;20.05;3.33;;;;;;;10.75;100.00;101510.66;4960637;28;20069;-93
2024/01/24 07:56:14;;;;;;;20.40;3.67;;;;;;;10.87;100.00;101503.44;4966287;28;20046;-94
2024/01/24 07:58:42;;;;;;;20.80;3.08;;;;;;;10.73;100.00;101513.50;4974337;28;20051;-93
2024/01/24 08:01:10;;;;;;;21.33;3.83;;;;;;;10.87;100.00;101541.81;4971278;28;20029;-94
2024/01/24 08:03:37;;;;;;;19.65;3.35;;;;;;;10.77;100.00;101536.09;4975527;28;20047;-94
2024/01/24 08:06:03;;;;;;;19.75;3.53;;;;;;;10.79;100.00;101543.22;4973017;28;20027;-94
2024/01/24 08:08:29;;;;;;;16.95;3.33;;;;;;;10.61;100.00;101544.50;4989730;28;20118;-92
2024/01/24 08:10:54;;;;;;;20.40;3.42;;;;;;;10.66;100.00;101553.28;4981223;28;20039;-94
2024/01/24 08:13:19;;;;;;;20.83;4.32;;;;;;;10.72;100.00;101530.06;4985291;28;20027;-93
2024/01/24 08:15:47;;;;;;;22.02;3.47;;;;;;;10.60;100.00;101529.91;4973723;28;20492;-94
2024/01/24 08:18:13;;;;;;;19.55;3.20;;;;;;;10.60;100.00;101531.78;4981483;28;20046;-94
2024/01/24 08:20:39;;;;;;;21.08;4.07;;;;;;;10.66;100.00;101542.31;4971154;28;20027;-93
2024/01/24 08:23:07;;;;;;;16.25;3.10;;;;;;;10.66;100.00;101550.53;4968617;28;20130;-94
2024/01/24 08:25:33;;;;;;;20.88;3.38;;;;;;;10.60;100.00;101559.16;4961093;28;20039;-95
2024/01/24 08:27:58;;;;;;;20.40;3.83;;;;;;;10.59;100.00;101577.47;4949581;28;20035;-95
2024/01/24 08:30:24;;;;;;;22.45;4.50;;;;;;;10.67;100.00;101587.88;4941363;29;20042;-95
2024/01/24 08:32:51;;;;;;;20.73;3.35;;;;;;;10.62;100.00;101581.84;4945538;28;20030;-94
2024/01/24 08:35:20;;;;;;;22.92;5.03;;;;;;;10.63;100.00;101594.56;4975366;28;20042;-95
2024/01/24 08:37:45;;;;;;;20.52;3.78;;;;;;;10.70;100.00;101590.41;4975487;28;20038;-94
2024/01/24 08:40:11;;;;;;;11.43;3.22;;;;;;;10.69;100.00;101585.94;4960734;28;20027;-93
2024/01/24 08:42:37;;;;;;;19.67;4.55;;;;;;;10.69;100.00;101624.28;4971130;28;20504;-92
2024/01/24 08:45:03;;;;;;;20.83;3.65;;;;;;;10.70;100.00;101608.72;4969821;28;20027;-90
2024/01/24 08:47:28;;;;;;;16.95;3.58;;;;;;;10.66;100.00;101628.09;4958382;28;20400;-94
2024/01/24 08:49:56;;;;;;;20.92;4.22;;;;;;;10.66;100.00;101611.66;4947168;28;20496;-93
2024/01/24 08:52:25;;;;;;;29.83;4.78;;;;;;;10.70;100.00;101636.09;4965097;28;20023;-94
2024/01/24 08:54:51;;;;;;;17.23;3.45;;;;;;;10.73;100.00;101634.03;4977396;28;20019;-94
2024/01/24 08:57:17;;;;;;;15.77;3.58;;;;;;;10.73;100.00;101628.56;4972523;28;20035;-94
2024/01/24 08:59:46;;;;;;;20.00;3.92;;;;;;;10.78;100.00;101628.25;4944558;28;20055;-89
2024/01/24 09:02:11;;;;;;;18.58;3.55;;;;;;;10.69;100.00;101629.75;4960297;28;20472;-90
2024/01/24 09:04:36;;;;;;;18.15;4.00;;;;;;;10.72;100.00;101614.97;4975200;28;20040;-90
2024/01/24 09:07:03;;;;;;;18.30;3.28;;;;;;;10.77;100.00;101629.22;4940385;29;20039;-89
2024/01/24 09:09:32;;;;;;;17.20;3.70;;;;;;;10.74;100.00;101632.16;4953317;28;20030;-89
2024/01/24 09:11:59;;;;;;;28.77;4.03;;;;;;;10.68;100.00;101655.38;4954522;29;20126;-92
2024/01/24 09:14:25;;;;;;;20.70;3.53;;;;;;;10.71;100.00;101660.66;4983005;28;20045;-88
2024/01/24 09:16:50;;;;;;;28.55;5.57;;;;;;;10.64;100.00;101671.16;4939996;29;20027;-91
2024/01/24 09:19:22;;;;;;;22.13;3.60;;;;;;;10.74;100.00;101678.72;4956558;28;20046;-91
2024/01/24 09:21:48;;;;;;;21.03;3.77;;;;;;;10.72;100.00;101664.25;4959588;28;20493;-90
2024/01/24 09:24:15;;;;;;;22.60;3.78;;;;;;;10.66;100.00;101665.56;4942565;28;20034;-89
2024/01/24 09:26:40;;;;;;;13.52;2.60;;;;;;;10.80;100.00;101657.28;4961076;28;20027;-89
2024/01/24 09:29:06;;;;;;;20.88;3.53;;;;;;;10.79;100.00;101677.47;4975212;28;20034;-93
2024/01/24 09:31:31;;;;;;;20.23;3.35;;;;;;;10.92;100.00;101673.88;4960821;28;20181;-95
2024/01/24 09:34:02;;;;;;;19.15;3.47;;;;;;;10.95;100.00;101676.41;4962445;28;20035;-94
2024/01/24 09:36:30;;;;;;;19.52;4.15;;;;;;;10.90;100.00;101670.38;4969832;28;20477;-90
2024/01/24 09:38:55;;;;;;;18.35;3.47;;;;;;;10.95;100.00;101707.47;4958747;28;20031;-93
2024/01/24 09:41:22;;;;;;;18.23;2.97;;;;;;;10.97;100.00;101707.31;4950270;28;20393;-93
2024/01/24 09:43:51;;;;;;;20.33;4.20;;;;;;;11.02;100.00;101738.06;4959846;28;20097;-95
2024/01/24 09:46:18;;;;;;;17.75;3.40;;;;;;;10.93;100.00;101738.66;4957628;28;20039;-94
2024/01/24 09:48:47;;;;;;;15.80;3.38;;;;;;;10.97;100.00;101745.69;4946762;28;20452;-94
2024/01/24 09:51:13;;;;;;;22.40;3.58;;;;;;;11.03;100.00;101740.69;4972902;28;20022;-94
2024/01/24 09:53:39;;;;;;;16.20;3.70;;;;;;;11.01;100.00;101747.25;4958717;28;20038;-92
2024/01/24 09:56:10;;;;;;;12.68;3.50;;;;;;;11.09;100.00;101749.50;4959949;28;20015;-94
2024/01/24 09:58:36;;;;;;;19.17;3.60;;;;;;;11.07;100.00;101741.38;4961671;28;20074;-94
2024/01/24 10:01:05;;;;;;;17.95;2.97;;;;;;;10.91;100.00;101751.59;4944059;28;20070;-95
2024/01/24 10:03:31;;;;;;;15.18;3.38;;;;;;;10.97;100.00;101732.88;4971516;28;20065;-95
2024/01/24 10:05:58;;;;;;;15.55;3.22;;;;;;;10.94;100.00;101752.25;4963325;28;20046;-94
2024/01/24 10:08:23;;;;;;;17.88;3.50;;;;;;;10.88;100.00;101776.44;4962402;28;20045;-94
2024/01/24 10:10:50;;;;;;;21.05;4.20;;;;;;;10.91;100.00;101763.44;4973546;28;20027;-94
2024/01/24 10:13:17;;;;;;;21.35;4.03;;;;;;;11.06;100.00;101782.56;4963109;28;20015;-93
2024/01/24 10:15:44;;;;;;;20.65;4.03;;;;;;;11.08;100.00;101800.66;4958696;28;20033;-90
2024/01/24 10:18:09;;;;;;;19.08;3.50;;;;;;;11.08;100.00;101786.09;4943406;28;20035;-93
2024/01/24 10:20:35;;;;;;;18.38;2.67;;;;;;;10.95;100.00;101789.66;4956981;28;20033;-91
2024/01/24 10:23:01;;;;;;;22.42;4.25;;;;;;;10.92;100.00;101797.16;4942322;28;20027;-92
2024/01/24 10:25:26;;;;;;;15.70;3.13;;;;;;;11.03;100.00;101800.09;4959510;28;20041;-91
2024/01/24 10:27:54;;;;;;;19.20;3.33;;;;;;;11.14;100.00;101799.41;4968065;28;20030;-91
2024/01/24 10:30:22;;;;;;;23.63;3.58;;;;;;;11.22;100.00;101811.59;4972729;28;20034;-91
2024/01/24 10:32:47;;;;;;;17.80;3.78;;;;;;;11.28;100.00;101804.84;4950457;28;20034;-93
2024/01/24 10:35:14;;;;;;;19.17;4.30;;;;;;;11.29;100.00;101808.47;4960823;28;20089;-95
2024/01/24 10:37:42;;;;;;;17.38;3.15;;;;;;;11.31;100.00;101803.75;4973113;28;20062;-93
2024/01/24 10:40:15;;;;;;;18.60;3.33;;;;;;;11.34;100.00;101801.66;4941967;28;20477;-92
2024/01/24 10:42:42;;;;;;;14.93;3.05;;;;;;;11.19;100.00;101792.59;4970465;28;20031;-92
2024/01/24 10:45:08;;;;;;;21.33;3.85;;;;;;;11.17;100.00;101810.16;4955806;28;20031;-92
2024/01/24 10:47:34;;;;;;;22.70;4.10;;;;;;;11.23;100.00;101834.41;4953311;28;20059;-94
2024/01/24 10:50:06;;;;;;;16.67;3.22;;;;;;;11.25;100.00;101829.72;4958677;28;20062;-92
2024/01/24 10:52:32;;;;;;;27.63;4.15;;;;;;;11.27;100.00;101826.88;4961498;28;20025;-92
2024/01/24 10:55:11;;;;;;;27.33;3.78;;;;;;;11.25;100.00;101831.56;4954928;28;20019;-92
2024/01/24 10:57:41;;;;;;;21.38;3.00;;;;;;;11.19;100.00;101821.91;4965477;28;20031;-87
2024/01/24 11:00:11;;;;;;;20.40;4.18;;;;;;;11.26;100.00;101825.97;4967939;28;20055;-85
2024/01/24 11:02:38;;;;;;;16.92;3.13;;;;;;;11.27;100.00;101837.84;4935035;28;20035;-84
2024/01/24 11:05:07;;;;;;;17.17;2.80;;;;;;;11.31;100.00;101831.16;4949837;28;20027;-85
2024/01/24 11:08:06;;;;;;;23.02;3.85;;;;;;;11.36;100.00;101835.38;4971232;28;20049;-86
2024/01/24 11:10:42;;;;;;;16.80;2.92;;;;;;;11.25;100.00;101848.00;4963887;28;20366;-87